createdAt,value
2022-07-29T00:01:44.717Z,101708.25
2022-07-29T00:04:11.797Z,101702.22
2022-07-29T00:06:38.627Z,101699.53
2022-07-29T00:09:05.393Z,101689.78
2022-07-29T00:11:31.819Z,101698.72
2022-07-29T00:13:58.225Z,101694.13
2022-07-29T00:16:24.695Z,101699.34
2022-07-29T00:18:51.146Z,101692.53
2022-07-29T00:21:17.560Z,101698.75
2022-07-29T00:23:44.011Z,101686.72
2022-07-29T00:26:10.481Z,101686.72
2022-07-29T00:28:37.315Z,101680.28
2022-07-29T00:31:03.765Z,101679.66
2022-07-29T00:33:30.376Z,101680.66
2022-07-29T00:35:57.067Z,101681.75
2022-07-29T00:38:23.824Z,101674.50
2022-07-29T00:40:50.383Z,101678.44
2022-07-29T00:43:18.227Z,101681.75
2022-07-29T00:45:45.072Z,101684.66
2022-07-29T00:48:11.539Z,101680.75
2022-07-29T00:50:38.626Z,101676.19
2022-07-29T00:53:07.364Z,101671.81
2022-07-29T00:55:34.044Z,101671.81
2022-07-29T00:58:01.362Z,101677.22
2022-07-29T01:00:29.577Z,101671.63
2022-07-29T01:02:57.369Z,101668.53
2022-07-29T01:05:48.554Z,101673.94
2022-07-29T01:08:16.284Z,101651.75
2022-07-29T01:10:44.742Z,101679.75
2022-07-29T01:13:11.841Z,101675.41
2022-07-29T01:15:49.269Z,101679.13
2022-07-29T01:18:18.196Z,101677.50
2022-07-29T01:21:19.422Z,101661.28
2022-07-29T01:24:00.568Z,101649.09
2022-07-29T01:26:35.757Z,101665.25
2022-07-29T01:29:08.206Z,101658.19
2022-07-29T01:32:02.435Z,101662.13
2022-07-29T01:34:40.447Z,101631.69
2022-07-29T01:37:19.419Z,101663.41
2022-07-29T01:39:48.848Z,101654.47
2022-07-29T01:42:28.772Z,101647.25
2022-07-29T01:45:00.231Z,101656.16
2022-07-29T01:47:39.900Z,101649.13
2022-07-29T01:50:09.469Z,101640.44
2022-07-29T01:52:43.370Z,101652.03
2022-07-29T01:55:15.980Z,101653.25
2022-07-29T01:57:47.613Z,101645.41
2022-07-29T02:00:14.907Z,101647.47
2022-07-29T02:02:44.629Z,101631.50
2022-07-29T02:05:21.364Z,101631.72
2022-07-29T02:07:50.158Z,101626.72
2022-07-29T02:10:20.483Z,101628.41
2022-07-29T02:12:55.242Z,101630.88
2022-07-29T02:15:25.165Z,101606.25
2022-07-29T02:17:59.322Z,101608.16
2022-07-29T02:20:27.767Z,101634.41
2022-07-29T02:22:55.661Z,101627.59
2022-07-29T02:25:24.446Z,101625.13
2022-07-29T02:27:52.327Z,101620.97
2022-07-29T02:30:22.059Z,101620.56
2022-07-29T02:32:50.159Z,101626.56
2022-07-29T02:35:17.595Z,101623.22
2022-07-29T02:37:46.094Z,101629.88
2022-07-29T02:40:15.379Z,101625.94
2022-07-29T02:42:44.795Z,101606.06
2022-07-29T02:45:11.864Z,101619.34
2022-07-29T02:47:43.701Z,101629.28
2022-07-29T02:50:34.746Z,101612.31
2022-07-29T02:53:10.047Z,101623.50
2022-07-29T02:56:00.351Z,101618.94
2022-07-29T02:58:30.488Z,101616.63
2022-07-29T03:01:00.623Z,101625.56
2022-07-29T03:03:32.330Z,101609.00
2022-07-29T03:06:02.055Z,101620.38
2022-07-29T03:08:29.002Z,101623.09
2022-07-29T03:10:56.378Z,101622.66
2022-07-29T03:13:23.694Z,101631.19
2022-07-29T03:15:51.208Z,101627.88
2022-07-29T03:18:18.610Z,101624.97
2022-07-29T03:20:45.112Z,101626.84
2022-07-29T03:23:11.581Z,101624.53
2022-07-29T03:25:38.159Z,101621.66
2022-07-29T03:28:04.778Z,101618.38
2022-07-29T03:30:31.694Z,101617.31
2022-07-29T03:32:58.819Z,101619.38
2022-07-29T03:35:25.659Z,101622.72
2022-07-29T03:37:52.061Z,101626.44
2022-07-29T03:40:26.824Z,101587.53
2022-07-29T03:42:56.171Z,101617.13
2022-07-29T03:45:23.653Z,101609.69
2022-07-29T03:47:59.902Z,101615.06
2022-07-29T03:50:28.290Z,101613.81
2022-07-29T03:52:54.722Z,101605.09
2022-07-29T03:55:21.372Z,101606.56
2022-07-29T03:57:49.095Z,101606.78
2022-07-29T04:00:16.936Z,101602.19
2022-07-29T04:02:49.081Z,101613.81
2022-07-29T04:05:16.225Z,101613.59
2022-07-29T04:07:46.391Z,101614.03
2022-07-29T04:10:13.114Z,101611.13
2022-07-29T04:12:39.559Z,101617.34
2022-07-29T04:15:06.647Z,101619.63
2022-07-29T04:17:33.066Z,101624.81
2022-07-29T04:19:59.641Z,101625.63
2022-07-29T04:22:26.147Z,101623.97
2022-07-29T04:24:53.880Z,101623.13
2022-07-29T04:27:20.288Z,101622.34
2022-07-29T04:29:57.015Z,101617.34
2022-07-29T04:32:25.062Z,101621.91
2022-07-29T04:34:51.505Z,101615.69
2022-07-29T04:37:17.894Z,101618.19
2022-07-29T04:39:44.305Z,101617.34
2022-07-29T04:42:11.372Z,101628.13
2022-07-29T04:44:39.640Z,101611.94
2022-07-29T04:47:09.619Z,101617.97
2022-07-29T04:49:38.945Z,101613.41
2022-07-29T04:52:06.093Z,101611.13
2022-07-29T04:54:32.462Z,101608.88
2022-07-29T04:56:58.893Z,101619.84
2022-07-29T04:59:26.148Z,101617.34
2022-07-29T05:01:52.639Z,101612.56
2022-07-29T05:04:19.770Z,101614.47
2022-07-29T05:06:46.718Z,101610.50
2022-07-29T05:09:13.138Z,101612.75
2022-07-29T05:11:39.541Z,101610.69
2022-07-29T05:14:05.973Z,101613.16
2022-07-29T05:16:32.511Z,101616.69
2022-07-29T05:18:58.930Z,101614.19
2022-07-29T05:21:25.357Z,101614.38
2022-07-29T05:23:51.832Z,101625.34
2022-07-29T05:26:18.298Z,101622.44
2022-07-29T05:28:44.733Z,101621.19
2022-07-29T05:31:11.163Z,101626.78
2022-07-29T05:33:37.681Z,101631.75
2022-07-29T05:36:08.371Z,101639.63
2022-07-29T05:38:36.553Z,101629.47
2022-07-29T05:41:03.692Z,101638.38
2022-07-29T05:43:30.358Z,101641.28
2022-07-29T05:45:57.452Z,101636.09
2022-07-29T05:48:23.958Z,101639.97
2022-07-29T05:50:50.395Z,101634.75
2022-07-29T05:53:19.670Z,101634.06
2022-07-29T05:55:47.654Z,101641.09
2022-07-29T05:58:14.061Z,101632.09
2022-07-29T06:00:41.041Z,101637.44
2022-07-29T06:03:07.615Z,101626.19
2022-07-29T06:05:34.098Z,101635.09
2022-07-29T06:08:00.656Z,101634.47
2022-07-29T06:10:27.830Z,101632.56
2022-07-29T06:12:54.413Z,101630.53
2022-07-29T06:15:20.911Z,101628.19
2022-07-29T06:18:00.640Z,101632.38
2022-07-29T06:20:32.721Z,101621.91
2022-07-29T06:23:00.423Z,101627.75
2022-07-29T06:25:30.135Z,101627.88
2022-07-29T06:27:56.975Z,101637.53
2022-07-29T06:30:24.585Z,101634.34
2022-07-29T06:32:51.246Z,101638.81
2022-07-29T06:35:41.018Z,101636.56
2022-07-29T06:38:09.560Z,101645.00
2022-07-29T06:41:00.965Z,101643.56
2022-07-29T06:43:32.394Z,101642.13
2022-07-29T06:46:03.890Z,101638.31
2022-07-29T06:48:30.548Z,101642.13
2022-07-29T06:50:57.210Z,101641.28
2022-07-29T06:53:23.917Z,101648.63
2022-07-29T06:55:50.341Z,101646.28
2022-07-29T06:58:18.881Z,101648.66
2022-07-29T07:00:46.054Z,101647.38
2022-07-29T07:03:12.562Z,101646.97
2022-07-29T07:05:39.083Z,101654.41
2022-07-29T07:08:05.668Z,101652.25
2022-07-29T07:10:32.175Z,101653.25
2022-07-29T07:12:58.606Z,101655.06
2022-07-29T07:15:39.680Z,101654.06
2022-07-29T07:18:07.593Z,101656.78
2022-07-29T07:20:34.771Z,101658.00
2022-07-29T07:23:01.549Z,101664.69
2022-07-29T07:25:28.095Z,101659.84
2022-07-29T07:27:54.596Z,101656.63
2022-07-29T07:30:21.295Z,101649.97
2022-07-29T07:32:47.788Z,101661.09
2022-07-29T07:35:14.206Z,101654.88
2022-07-29T07:37:41.554Z,101660.53
2022-07-29T07:40:10.810Z,101655.94
2022-07-29T07:42:37.596Z,101658.25
2022-07-29T07:45:16.277Z,101654.72
2022-07-29T07:47:43.621Z,101650.19
2022-07-29T07:50:18.033Z,101653.94
2022-07-29T07:52:52.954Z,101658.63
2022-07-29T07:55:20.058Z,101649.22
2022-07-29T07:57:46.606Z,101650.78
2022-07-29T08:00:15.061Z,101656.44
2022-07-29T08:02:43.838Z,101650.81
2022-07-29T08:05:12.828Z,101661.56
2022-07-29T08:07:39.885Z,101635.16
2022-07-29T08:10:06.638Z,101640.94
2022-07-29T08:12:33.101Z,101644.38
2022-07-29T08:14:59.843Z,101644.72
2022-07-29T08:17:27.527Z,101646.25
2022-07-29T08:19:53.963Z,101648.81
2022-07-29T08:22:20.499Z,101658.41
2022-07-29T08:24:57.029Z,101653.47
2022-07-29T08:27:42.997Z,101659.56
2022-07-29T08:30:11.123Z,101660.13
2022-07-29T08:32:53.313Z,101652.22
2022-07-29T08:35:21.733Z,101648.09
2022-07-29T08:37:48.879Z,101645.50
2022-07-29T08:40:15.663Z,101657.78
2022-07-29T08:42:42.242Z,101648.19
2022-07-29T08:45:09.168Z,101655.72
2022-07-29T08:47:40.478Z,101643.78
2022-07-29T08:50:09.201Z,101622.66
2022-07-29T08:52:38.839Z,101644.47
2022-07-29T08:55:07.590Z,101646.94
2022-07-29T08:57:34.967Z,101651.38
2022-07-29T09:00:11.871Z,101642.34
2022-07-29T09:02:48.637Z,101644.81
2022-07-29T09:05:15.679Z,101649.41
2022-07-29T09:07:44.262Z,101651.31
2022-07-29T09:10:11.416Z,101644.31
2022-07-29T09:12:39.382Z,101640.63
2022-07-29T09:15:06.540Z,101650.50
2022-07-29T09:17:43.996Z,101620.38
2022-07-29T09:20:15.148Z,101636.13
2022-07-29T09:22:42.318Z,101634.88
2022-07-29T09:25:09.848Z,101645.50
2022-07-29T09:27:36.963Z,101637.47
2022-07-29T09:30:11.682Z,101635.34
2022-07-29T09:33:01.778Z,101619.81
2022-07-29T09:35:29.335Z,101641.56
2022-07-29T09:37:55.864Z,101641.56
2022-07-29T09:40:25.047Z,101633.41
2022-07-29T09:42:53.840Z,101641.91
2022-07-29T09:45:35.138Z,101639.56
2022-07-29T09:48:23.551Z,101639.97
2022-07-29T09:50:50.995Z,101636.34
2022-07-29T09:53:39.169Z,101630.13
2022-07-29T09:56:06.015Z,101626.19
2022-07-29T09:58:34.674Z,101636.56
2022-07-29T10:01:01.411Z,101626.53
2022-07-29T10:03:28.030Z,101635.78
2022-07-29T10:06:14.478Z,101630.78
2022-07-29T10:08:42.452Z,101617.88
2022-07-29T10:11:19.070Z,101641.78
2022-07-29T10:13:47.781Z,101633.66
2022-07-29T10:16:16.226Z,101631.41
2022-07-29T10:18:44.616Z,101628.09
2022-07-29T10:21:11.434Z,101632.72
2022-07-29T10:23:50.244Z,101637.41
2022-07-29T10:26:16.774Z,101628.16
2022-07-29T10:28:43.242Z,101633.34
2022-07-29T10:31:18.025Z,101632.50
2022-07-29T10:34:22.986Z,101629.63
2022-07-29T10:37:04.736Z,101626.03
2022-07-29T10:40:30.812Z,101630.13
2022-07-29T10:43:03.819Z,101617.09
2022-07-29T10:45:30.583Z,101628.47
2022-07-29T10:48:08.028Z,101618.47
2022-07-29T10:50:56.219Z,101621.75
2022-07-29T10:53:24.510Z,101625.88
2022-07-29T10:55:53.690Z,101617.38
2022-07-29T10:58:27.084Z,101612.50
2022-07-29T11:00:56.267Z,101615.09
2022-07-29T11:03:50.329Z,101605.19
2022-07-29T11:06:26.748Z,101614.75
2022-07-29T11:09:16.989Z,101613.50
2022-07-29T11:11:43.937Z,101615.84
2022-07-29T11:14:14.791Z,101608.47
2022-07-29T11:17:06.885Z,101606.31
2022-07-29T11:19:34.084Z,101611.19
2022-07-29T11:22:02.475Z,101599.72
2022-07-29T11:24:33.010Z,101600.56
2022-07-29T11:27:23.433Z,101610.28
2022-07-29T11:29:58.772Z,101610.91
2022-07-29T11:32:37.802Z,101608.50
2022-07-29T11:35:37.653Z,101607.41
2022-07-29T11:38:31.953Z,101601.25
2022-07-29T11:41:27.381Z,101592.88
2022-07-29T11:43:55.991Z,101601.31
2022-07-29T11:46:47.994Z,101602.16
2022-07-29T11:49:20.360Z,101601.84
2022-07-29T11:51:57.163Z,101600.72
2022-07-29T11:54:27.884Z,101615.47
2022-07-29T11:56:58.388Z,101612.25
2022-07-29T11:59:33.121Z,101613.16
2022-07-29T12:02:36.644Z,101613.94
2022-07-29T12:04:52.514Z,101610.88
2022-07-29T12:07:34.847Z,101607.41
2022-07-29T12:10:03.215Z,101613.13
2022-07-29T12:12:29.903Z,101606.53
2022-07-29T12:14:56.413Z,101617.94
2022-07-29T12:17:30.889Z,101623.69
2022-07-29T12:20:00.761Z,101619.63
2022-07-29T12:22:32.427Z,101627.78
2022-07-29T12:25:32.332Z,101617.13
2022-07-29T12:28:03.982Z,101626.72
2022-07-29T12:30:49.548Z,101626.19
2022-07-29T12:33:24.094Z,101626.19
2022-07-29T12:36:05.922Z,101628.91
2022-07-29T12:38:35.632Z,101640.38
2022-07-29T12:41:04.446Z,101642.28
2022-07-29T12:43:31.574Z,101638.72
2022-07-29T12:45:58.702Z,101643.94
2022-07-29T12:48:39.154Z,101640.38
2022-07-29T12:51:07.714Z,101629.72
2022-07-29T12:53:34.364Z,101633.50
2022-07-29T12:56:15.543Z,101622.00
2022-07-29T12:58:51.462Z,101630.19
2022-07-29T13:01:20.422Z,101639.75
2022-07-29T13:04:01.474Z,101632.66
2022-07-29T13:06:41.281Z,101626.66
2022-07-29T13:09:12.122Z,101628.53
2022-07-29T13:11:47.881Z,101607.84
2022-07-29T13:14:32.596Z,101619.66
2022-07-29T13:17:08.831Z,101637.19
2022-07-29T13:19:43.624Z,101625.44
2022-07-29T13:22:15.005Z,101628.44
2022-07-29T13:24:52.359Z,101629.00
2022-07-29T13:27:22.357Z,101630.13
2022-07-29T13:29:52.140Z,101638.06
2022-07-29T13:32:19.588Z,101632.81
2022-07-29T13:34:56.010Z,101626.75
2022-07-29T13:37:22.482Z,101635.75
2022-07-29T13:39:52.998Z,101627.56
2022-07-29T13:42:20.019Z,101638.47
2022-07-29T13:44:46.529Z,101633.25
2022-07-29T13:47:13.709Z,101627.56
2022-07-29T13:49:40.205Z,101630.63
2022-07-29T13:52:08.404Z,101628.50
2022-07-29T13:54:41.991Z,101624.59
2022-07-29T13:57:09.939Z,101630.88
2022-07-29T13:59:36.382Z,101631.72
2022-07-29T14:02:03.978Z,101631.47
2022-07-29T14:04:30.506Z,101625.78
2022-07-29T14:06:57.131Z,101631.53
2022-07-29T14:09:23.658Z,101630.13
2022-07-29T14:11:51.859Z,101636.94
2022-07-29T14:14:18.428Z,101635.53
2022-07-29T14:16:47.788Z,101627.97
2022-07-29T14:19:16.919Z,101633.44
2022-07-29T14:21:43.439Z,101635.81
2022-07-29T14:24:21.758Z,101639.09
2022-07-29T14:26:49.678Z,101635.81
2022-07-29T14:29:16.190Z,101634.94
2022-07-29T14:31:44.097Z,101637.63
2022-07-29T14:34:10.689Z,101640.88
2022-07-29T14:36:37.271Z,101636.53
2022-07-29T14:39:03.857Z,101648.78
2022-07-29T14:41:30.571Z,101639.75
2022-07-29T14:43:57.053Z,101642.47
2022-07-29T14:46:23.750Z,101642.47
2022-07-29T14:48:50.245Z,101641.13
2022-07-29T14:51:16.768Z,101640.03
2022-07-29T14:53:43.190Z,101643.03
2022-07-29T14:56:34.180Z,101631.34
2022-07-29T14:58:59.539Z,101643.69
2022-07-29T15:01:26.045Z,101640.22
2022-07-29T15:03:54.791Z,101637.84
2022-07-29T15:06:24.540Z,101647.16
2022-07-29T15:08:50.932Z,101641.75
2022-07-29T15:11:17.516Z,101630.53
2022-07-29T15:13:44.047Z,101641.34
2022-07-29T15:16:11.231Z,101648.84
2022-07-29T15:18:41.281Z,101638.66
2022-07-29T15:21:08.491Z,101641.94
2022-07-29T15:23:37.458Z,101646.63
2022-07-29T15:26:05.126Z,101646.69
2022-07-29T15:28:31.683Z,101645.78
2022-07-29T15:30:58.159Z,101637.94
2022-07-29T15:33:24.871Z,101636.81
2022-07-29T15:35:51.384Z,101632.97
2022-07-29T15:38:18.537Z,101641.69
2022-07-29T15:40:46.545Z,101641.34
2022-07-29T15:43:13.173Z,101635.72
2022-07-29T15:45:41.410Z,101631.22
2022-07-29T15:48:09.887Z,101635.25
2022-07-29T15:50:41.297Z,101634.56
2022-07-29T15:53:07.741Z,101651.66
2022-07-29T15:55:34.185Z,101660.84
2022-07-29T15:58:00.912Z,101650.97
2022-07-29T16:00:27.905Z,101653.25
2022-07-29T16:02:54.392Z,101651.22
2022-07-29T16:05:21.013Z,101651.94
2022-07-29T16:07:47.465Z,101651.56
2022-07-29T16:10:13.971Z,101650.25
2022-07-29T16:12:40.646Z,101655.13
2022-07-29T16:15:10.413Z,101651.88
2022-07-29T16:17:37.972Z,101650.78
2022-07-29T16:20:06.079Z,101658.69
2022-07-29T16:22:32.538Z,101654.31
2022-07-29T16:24:59.033Z,101652.94
2022-07-29T16:27:31.392Z,101658.22
2022-07-29T16:30:06.398Z,101654.31
2022-07-29T16:32:32.814Z,101661.75
2022-07-29T16:35:02.040Z,101659.75
2022-07-29T16:37:33.446Z,101669.66
2022-07-29T16:39:59.953Z,101663.31
2022-07-29T16:42:45.590Z,101667.47
2022-07-29T16:45:13.618Z,101663.59
2022-07-29T16:47:40.329Z,101670.22
2022-07-29T16:50:07.543Z,101668.56
2022-07-29T16:52:34.189Z,101663.88
2022-07-29T16:55:00.767Z,101674.59
2022-07-29T16:57:27.271Z,101670.03
2022-07-29T16:59:54.934Z,101671.69
2022-07-29T17:02:21.477Z,101678.59
2022-07-29T17:04:48.340Z,101683.22
2022-07-29T17:07:15.999Z,101685.88
2022-07-29T17:09:42.442Z,101678.34
2022-07-29T17:12:09.380Z,101680.91
2022-07-29T17:14:35.821Z,101685.13
2022-07-29T17:17:03.141Z,101681.50
2022-07-29T17:19:32.804Z,101675.88
2022-07-29T17:22:07.060Z,101679.84
2022-07-29T17:24:36.907Z,101679.53
2022-07-29T17:27:04.841Z,101678.34
2022-07-29T17:29:31.366Z,101676.38
2022-07-29T17:31:59.534Z,101675.94
2022-07-29T17:34:26.740Z,101685.31
2022-07-29T17:36:53.285Z,101678.38
2022-07-29T17:39:19.671Z,101682.88
2022-07-29T17:41:46.848Z,101689.59
2022-07-29T17:44:13.611Z,101688.78
2022-07-29T17:46:40.466Z,101687.50
2022-07-29T17:49:07.615Z,101693.38
2022-07-29T17:51:34.221Z,101695.16
2022-07-29T17:54:00.698Z,101693.31
2022-07-29T17:56:27.171Z,101697.69
2022-07-29T17:58:54.149Z,101684.59
2022-07-29T18:01:20.926Z,101701.31
2022-07-29T18:03:47.515Z,101692.25
2022-07-29T18:06:13.993Z,101700.16
2022-07-29T18:08:40.706Z,101695.94
2022-07-29T18:11:07.259Z,101701.50
2022-07-29T18:13:33.742Z,101700.69
2022-07-29T18:16:00.806Z,101697.88
2022-07-29T18:18:27.873Z,101704.34
2022-07-29T18:20:54.345Z,101699.88
2022-07-29T18:23:21.233Z,101696.72
2022-07-29T18:25:47.771Z,101692.81
2022-07-29T18:28:14.318Z,101706.72
2022-07-29T18:30:41.463Z,101699.31
2022-07-29T18:33:21.604Z,101700.84
2022-07-29T18:35:50.116Z,101708.06
2022-07-29T18:38:17.345Z,101712.66
2022-07-29T18:40:45.783Z,101714.53
2022-07-29T18:43:13.631Z,101716.50
2022-07-29T18:45:40.622Z,101719.19
2022-07-29T18:48:12.815Z,101715.81
2022-07-29T18:50:39.886Z,101716.84
2022-07-29T18:53:06.341Z,101713.28
2022-07-29T18:55:32.845Z,101714.84
2022-07-29T18:57:59.506Z,101716.59
2022-07-29T19:00:26.535Z,101723.31
2022-07-29T19:02:53.686Z,101723.19
2022-07-29T19:05:21.064Z,101734.25
2022-07-29T19:07:47.555Z,101735.78
2022-07-29T19:10:14.266Z,101733.06
2022-07-29T19:12:40.895Z,101743.53
2022-07-29T19:15:10.313Z,101747.28
2022-07-29T19:17:36.747Z,101746.97
2022-07-29T19:20:03.574Z,101753.19
2022-07-29T19:22:30.823Z,101758.00
2022-07-29T19:24:57.309Z,101764.13
2022-07-29T19:27:24.045Z,101772.13
2022-07-29T19:29:50.601Z,101773.97
2022-07-29T19:32:25.042Z,101769.41
2022-07-29T19:35:10.671Z,101775.78
2022-07-29T19:37:37.537Z,101777.81
2022-07-29T19:40:05.197Z,101776.75
2022-07-29T19:42:31.598Z,101779.53
2022-07-29T19:44:58.045Z,101789.44
2022-07-29T19:47:24.544Z,101794.09
2022-07-29T19:49:51.508Z,101797.28
2022-07-29T19:52:17.969Z,101790.97
2022-07-29T19:54:44.431Z,101802.41
2022-07-29T19:57:11.867Z,101810.97
2022-07-29T19:59:39.013Z,101809.56
2022-07-29T20:02:05.819Z,101817.31
2022-07-29T20:04:32.314Z,101819.41
2022-07-29T20:07:01.709Z,101820.09
2022-07-29T20:09:28.663Z,101812.16
2022-07-29T20:11:55.330Z,101819.06
2022-07-29T20:14:21.989Z,101810.81
2022-07-29T20:16:48.855Z,101814.19
2022-07-29T20:19:15.618Z,101804.84
2022-07-29T20:21:42.123Z,101816.75
2022-07-29T20:24:10.309Z,101811.34
2022-07-29T20:26:36.889Z,101808.41
2022-07-29T20:29:05.180Z,101803.44
2022-07-29T20:31:32.512Z,101803.53
2022-07-29T20:34:00.149Z,101799.81
2022-07-29T20:36:27.425Z,101794.41
2022-07-29T20:38:55.002Z,101795.25
2022-07-29T20:41:21.573Z,101788.16
2022-07-29T20:43:49.815Z,101790.03
2022-07-29T20:46:16.758Z,101794.88
2022-07-29T20:48:43.706Z,101786.38
2022-07-29T20:51:10.264Z,101779.72
2022-07-29T20:53:40.423Z,101780.78
2022-07-29T20:56:07.626Z,101777.09
2022-07-29T20:58:36.138Z,101784.59
2022-07-29T21:01:03.666Z,101786.94
2022-07-29T21:03:30.272Z,101788.59
2022-07-29T21:05:57.044Z,101779.25
2022-07-29T21:08:23.498Z,101781.81
2022-07-29T21:10:50.033Z,101779.31
2022-07-29T21:13:17.033Z,101782.47
2022-07-29T21:15:46.241Z,101785.59
2022-07-29T21:18:30.148Z,101781.47
2022-07-29T21:20:58.447Z,101789.44
2022-07-29T21:23:25.749Z,101793.38
2022-07-29T21:25:53.326Z,101788.25
2022-07-29T21:28:50.585Z,101788.94
2022-07-29T21:31:17.237Z,101772.56
2022-07-29T21:33:46.212Z,101776.69
2022-07-29T21:36:46.564Z,101781.06
2022-07-29T21:39:06.952Z,101781.50
2022-07-29T21:41:34.420Z,101782.59
2022-07-29T21:44:01.325Z,101788.66
2022-07-29T21:46:28.007Z,101782.25
2022-07-29T21:48:54.582Z,101783.94
2022-07-29T21:51:21.151Z,101789.41
2022-07-29T21:53:47.586Z,101789.19
2022-07-29T21:56:14.732Z,101793.34
2022-07-29T21:58:41.712Z,101787.94
2022-07-29T22:01:08.463Z,101803.06
2022-07-29T22:03:34.913Z,101798.72
2022-07-29T22:06:01.386Z,101797.31
2022-07-29T22:08:27.865Z,101816.22
2022-07-29T22:10:54.340Z,101816.63
2022-07-29T22:13:20.772Z,101818.50
2022-07-29T22:15:47.384Z,101823.91
2022-07-29T22:18:20.553Z,101827.03
2022-07-29T22:20:48.579Z,101832.25
2022-07-29T22:23:15.122Z,101837.88
2022-07-29T22:25:41.596Z,101839.75
2022-07-29T22:28:08.014Z,101839.34
2022-07-29T22:30:34.573Z,101838.94
2022-07-29T22:33:01.027Z,101848.75
2022-07-29T22:35:27.458Z,101841.69
2022-07-29T22:37:54.204Z,101843.56
2022-07-29T22:40:20.866Z,101840.91
2022-07-29T22:42:47.317Z,101836.34
2022-07-29T22:45:13.778Z,101831.53
2022-07-29T22:47:48.248Z,101834.88
2022-07-29T22:50:15.676Z,101829.31
2022-07-29T22:52:42.205Z,101846.34
2022-07-29T22:55:09.224Z,101833.69
2022-07-29T22:57:35.886Z,101838.91
2022-07-29T23:00:02.452Z,101841.41
2022-07-29T23:02:29.349Z,101831.44
2022-07-29T23:04:56.289Z,101841.59
2022-07-29T23:07:22.915Z,101833.94
2022-07-29T23:09:49.423Z,101831.44
2022-07-29T23:12:15.817Z,101828.75
2022-07-29T23:14:42.242Z,101819.19
2022-07-29T23:17:08.768Z,101831.44
2022-07-29T23:19:35.207Z,101818.34
2022-07-29T23:22:01.594Z,101821.25
2022-07-29T23:24:28.046Z,101822.91
2022-07-29T23:26:54.457Z,101822.50
2022-07-29T23:29:21.105Z,101823.31
2022-07-29T23:31:48.034Z,101817.56
2022-07-29T23:34:14.970Z,101818.78
2022-07-29T23:36:42.280Z,101811.75
2022-07-29T23:39:13.109Z,101814.44
2022-07-29T23:41:39.685Z,101806.56
2022-07-29T23:44:06.147Z,101812.56
2022-07-29T23:46:32.601Z,101811.56
2022-07-29T23:48:59.101Z,101813.00
2022-07-29T23:51:25.711Z,101814.22
2022-07-29T23:53:53.049Z,101811.94
2022-07-29T23:56:21.002Z,101813.59
2022-07-29T23:58:47.463Z,101809.25
